Clear Sky Current Weather (METAR) For Amsterdam Schiphol Airport

All times on the weather descriptions are local

Observed at 03:25 - (16 mins ago)

Clear Sky

16°C

Clear Sky
Clouds:
Wind: 160° at 04 knots
Visibility: Greater than 10km
QNH: 1012
Dew Point: 14°C
Runways with a headwind: Runway 24, Runway 09, Runways 18L/C/R

Sunrise Today: 06:00
Sunset Today: 21:34

Forecast Weather (TAF) For Amsterdam Schiphol Airport

Issued at 02:00 - (30 days ago)


Runways with a headwind: Unable to determine, wind is clam

Forecast valid until 02:00 on Sunday

METAR/TAF RAW METAR / TAF

EHAM 010125Z 16004KT CAVOK 16/14 Q1012 NOSIG

Weather Widget

Put weather from any of our airports on your website with our weather widget.

Find Another Search

Airport Search


Please Wait Please Wait - Loading
Close
Close

Login

Username:

Password:

Remember Me:

Remember me on this computer

Forgotten your password? Get a reset password sent to your registered e-mail address

Close

User Private Message

Subject:

Message: